sensor_id;sensor_type;location;lat;lon;timestamp;pressure;altitude;pressure_sealevel;temperature;humidity
64025;BME280;50266;57.446;26.936;2022-11-15T00:00:36;99875.61;;;-0.27;100.0
64025;BME280;50266;57.446;26.936;2022-11-15T00:01:38;99881.77;;;-0.35;100.0
64025;BME280;50266;57.446;26.936;2022-11-15T00:02:39;99878.64;;;-0.29;100.0
64025;BME280;50266;57.446;26.936;2022-11-15T00:03:41;99873.16;;;-0.27;100.0
64025;BME280;50266;57.446;26.936;2022-11-15T00:04:42;99875.63;;;-0.21;100.0
64025;BME280;50266;57.446;26.936;2022-11-15T00:05:44;99875.6;;;-0.26;100.0
64025;BME280;50266;57.446;26.936;2022-11-15T00:06:45;99868.72;;;-0.31;100.0
64025;BME280;50266;57.446;26.936;2022-11-15T00:07:47;99876.61;;;-0.31;100.0
64025;BME280;50266;57.446;26.936;2022-11-15T00:08:51;99873.52;;;-0.25;100.0
64025;BME280;50266;57.446;26.936;2022-11-15T00:09:52;99872.64;;;-0.24;100.0
64025;BME280;50266;57.446;26.936;2022-11-15T00:10:54;99875.02;;;-0.19;100.0
64025;BME280;50266;57.446;26.936;2022-11-15T00:11:56;99874.4;;;-0.22;100.0
64025;BME280;50266;57.446;26.936;2022-11-15T00:12:57;99868.36;;;-0.29;100.0
64025;BME280;50266;57.446;26.936;2022-11-15T00:13:59;99871.81;;;-0.24;100.0
64025;BME280;50266;57.446;26.936;2022-11-15T00:15:00;99872.22;;;-0.32;100.0
64025;BME280;50266;57.446;26.936;2022-11-15T00:16:02;99876.62;;;-0.36;100.0
64025;BME280;50266;57.446;26.936;2022-11-15T00:17:03;99867.59;;;-0.41;100.0
64025;BME280;50266;57.446;26.936;2022-11-15T00:18:05;99864.16;;;-0.17;100.0
64025;BME280;50266;57.446;26.936;2022-11-15T00:19:07;99863.89;;;-0.25;100.0
64025;BME280;50266;57.446;26.936;2022-11-15T00:20:09;99861.23;;;-0.36;100.0
64025;BME280;50266;57.446;26.936;2022-11-15T00:21:11;99863.24;;;-0.41;100.0
64025;BME280;50266;57.446;26.936;2022-11-15T00:22:13;99859.09;;;-0.39;100.0
64025;BME280;50266;57.446;26.936;2022-11-15T00:23:14;99857.52;;;-0.32;100.0
64025;BME280;50266;57.446;26.936;2022-11-15T00:24:16;99860.03;;;-0.39;100.0
64025;BME280;50266;57.446;26.936;2022-11-15T00:25:17;99848.83;;;-0.36;100.0
64025;BME280;50266;57.446;26.936;2022-11-15T00:26:19;99851.36;;;-0.38;100.0
64025;BME280;50266;57.446;26.936;2022-11-15T00:27:20;99852.95;;;-0.44;100.0
64025;BME280;50266;57.446;26.936;2022-11-15T00:28:21;99852.69;;;-0.47;100.0
64025;BME280;50266;57.446;26.936;2022-11-15T00:29:23;99851.69;;;-0.43;100.0
64025;BME280;50266;57.446;26.936;2022-11-15T00:30:24;99850.31;;;-0.46;100.0
64025;BME280;50266;57.446;26.936;2022-11-15T00:31:26;99851.27;;;-0.39;100.0
64025;BME280;50266;57.446;26.936;2022-11-15T00:32:30;99849.33;;;-0.44;100.0
64025;BME280;50266;57.446;26.936;2022-11-15T00:33:22;99842.3;;;-0.44;100.0
64025;BME280;50266;57.446;26.936;2022-11-15T00:34:22;99843.9;;;-0.62;100.0
64025;BME280;50266;57.446;26.936;2022-11-15T00:35:22;99843.52;;;-0.42;100.0
64025;BME280;50266;57.446;26.936;2022-11-15T00:36:22;99840.09;;;-0.49;100.0
64025;BME280;50266;57.446;26.936;2022-11-15T00:37:23;99832.0;;;-0.62;100.0
64025;BME280;50266;57.446;26.936;2022-11-15T00:38:23;99832.41;;;-0.64;100.0
64025;BME280;50266;57.446;26.936;2022-11-15T00:39:23;99835.16;;;-0.58;100.0
64025;BME280;50266;57.446;26.936;2022-11-15T00:40:23;99833.98;;;-0.59;100.0
64025;BME280;50266;57.446;26.936;2022-11-15T00:41:23;99829.15;;;-0.52;100.0
64025;BME280;50266;57.446;26.936;2022-11-15T00:42:23;99824.6;;;-0.57;100.0
64025;BME280;50266;57.446;26.936;2022-11-15T00:43:23;99827.5;;;-0.71;100.0
64025;BME280;50266;57.446;26.936;2022-11-15T00:44:24;99828.24;;;-0.7;100.0
64025;BME280;50266;57.446;26.936;2022-11-15T00:45:24;99826.67;;;-0.66;100.0
64025;BME280;50266;57.446;26.936;2022-11-15T00:46:24;99827.7;;;-0.66;100.0
64025;BME280;50266;57.446;26.936;2022-11-15T00:47:24;99826.25;;;-0.64;100.0
64025;BME280;50266;57.446;26.936;2022-11-15T00:48:24;99824.02;;;-0.67;100.0
64025;BME280;50266;57.446;26.936;2022-11-15T00:49:24;99824.81;;;-0.6;100.0
64025;BME280;50266;57.446;26.936;2022-11-15T00:50:24;99824.58;;;-0.68;100.0
64025;BME280;50266;57.446;26.936;2022-11-15T00:51:24;99821.02;;;-0.62;100.0
64025;BME280;50266;57.446;26.936;2022-11-15T00:52:25;99818.7;;;-0.55;100.0
64025;BME280;50266;57.446;26.936;2022-11-15T00:53:25;99821.29;;;-0.66;100.0
64025;BME280;50266;57.446;26.936;2022-11-15T00:54:25;99817.96;;;-0.57;100.0
64025;BME280;50266;57.446;26.936;2022-11-15T00:55:25;99817.94;;;-0.64;100.0
64025;BME280;50266;57.446;26.936;2022-11-15T00:56:25;99816.38;;;-0.56;100.0
64025;BME280;50266;57.446;26.936;2022-11-15T00:57:25;99811.62;;;-0.67;100.0
64025;BME280;50266;57.446;26.936;2022-11-15T00:58:25;99807.03;;;-0.65;100.0
64025;BME280;50266;57.446;26.936;2022-11-15T00:59:26;99805.99;;;-0.6;100.0
64025;BME280;50266;57.446;26.936;2022-11-15T01:00:26;99798.66;;;-0.54;100.0
64025;BME280;50266;57.446;26.936;2022-11-15T01:01:26;99792.42;;;-0.55;100.0
64025;BME280;50266;57.446;26.936;2022-11-15T01:02:26;99790.69;;;-0.55;100.0
64025;BME280;50266;57.446;26.936;2022-11-15T01:03:26;99788.66;;;-0.57;100.0
64025;BME280;50266;57.446;26.936;2022-11-15T01:04:26;99784.34;;;-0.64;100.0
64025;BME280;50266;57.446;26.936;2022-11-15T01:05:27;99786.88;;;-0.63;100.0
64025;BME280;50266;57.446;26.936;2022-11-15T01:06:26;99775.93;;;-0.61;100.0
64025;BME280;50266;57.446;26.936;2022-11-15T01:07:27;99774.3;;;-0.57;100.0
64025;BME280;50266;57.446;26.936;2022-11-15T01:08:27;99773.14;;;-0.49;100.0
64025;BME280;50266;57.446;26.936;2022-11-15T01:09:27;99766.16;;;-0.49;100.0
64025;BME280;50266;57.446;26.936;2022-11-15T01:10:27;99761.45;;;-0.59;100.0
64025;BME280;50266;57.446;26.936;2022-11-15T01:11:27;99760.08;;;-0.59;100.0
64025;BME280;50266;57.446;26.936;2022-11-15T01:12:27;99758.7;;;-0.69;100.0
64025;BME280;50266;57.446;26.936;2022-11-15T01:13:29;99756.0;;;-0.64;100.0
64025;BME280;50266;57.446;26.936;2022-11-15T01:14:27;99750.08;;;-0.6;100.0
64025;BME280;50266;57.446;26.936;2022-11-15T01:15:28;99753.44;;;-0.52;100.0
64025;BME280;50266;57.446;26.936;2022-11-15T01:16:28;99754.62;;;-0.51;100.0
64025;BME280;50266;57.446;26.936;2022-11-15T01:17:28;99753.84;;;-0.62;100.0
64025;BME280;50266;57.446;26.936;2022-11-15T01:18:28;99751.26;;;-0.48;100.0
64025;BME280;50266;57.446;26.936;2022-11-15T01:19:28;99751.69;;;-0.45;100.0
64025;BME280;50266;57.446;26.936;2022-11-15T01:20:28;99743.19;;;-0.57;100.0
64025;BME280;50266;57.446;26.936;2022-11-15T01:21:29;99737.92;;;-0.61;100.0
64025;BME280;50266;57.446;26.936;2022-11-15T01:22:29;99738.55;;;-0.67;100.0
64025;BME280;50266;57.446;26.936;2022-11-15T01:23:29;99736.45;;;-0.57;100.0
64025;BME280;50266;57.446;26.936;2022-11-15T01:24:29;99734.39;;;-0.61;100.0
64025;BME280;50266;57.446;26.936;2022-11-15T01:25:29;99732.93;;;-0.58;100.0
64025;BME280;50266;57.446;26.936;2022-11-15T01:26:29;99731.91;;;-0.52;100.0
64025;BME280;50266;57.446;26.936;2022-11-15T01:27:29;99728.45;;;-0.61;100.0
64025;BME280;50266;57.446;26.936;2022-11-15T01:28:30;99733.92;;;-0.64;100.0
64025;BME280;50266;57.446;26.936;2022-11-15T01:29:29;99727.34;;;-0.59;100.0
64025;BME280;50266;57.446;26.936;2022-11-15T01:30:30;99726.22;;;-0.54;100.0
64025;BME280;50266;57.446;26.936;2022-11-15T01:31:30;99720.66;;;-0.59;100.0
64025;BME280;50266;57.446;26.936;2022-11-15T01:32:30;99723.95;;;-0.52;100.0
64025;BME280;50266;57.446;26.936;2022-11-15T01:33:30;99712.81;;;-0.59;100.0
64025;BME280;50266;57.446;26.936;2022-11-15T01:34:30;99715.7;;;-0.53;100.0
64025;BME280;50266;57.446;26.936;2022-11-15T01:35:30;99708.89;;;-0.58;100.0
64025;BME280;50266;57.446;26.936;2022-11-15T01:36:30;99709.14;;;-0.57;100.0
64025;BME280;50266;57.446;26.936;2022-11-15T01:37:31;99703.68;;;-0.52;100.0
64025;BME280;50266;57.446;26.936;2022-11-15T01:38:31;99698.62;;;-0.49;100.0
64025;BME280;50266;57.446;26.936;2022-11-15T01:39:31;99694.21;;;-0.49;100.0
64025;BME280;50266;57.446;26.936;2022-11-15T01:40:31;99689.69;;;-0.48;100.0
64025;BME280;50266;57.446;26.936;2022-11-15T01:41:32;99691.06;;;-0.49;100.0
64025;BME280;50266;57.446;26.936;2022-11-15T01:42:31;99691.98;;;-0.52;100.0
64025;BME280;50266;57.446;26.936;2022-11-15T01:43:35;99693.61;;;-0.52;100.0
64025;BME280;50266;57.446;26.936;2022-11-15T01:44:39;99694.67;;;-0.37;100.0
64025;BME280;50266;57.446;26.936;2022-11-15T01:45:35;99691.12;;;-0.47;100.0
64025;BME280;50266;57.446;26.936;2022-11-15T01:46:36;99693.62;;;-0.5;100.0
64025;BME280;50266;57.446;26.936;2022-11-15T01:47:37;99684.95;;;-0.45;100.0
64025;BME280;50266;57.446;26.936;2022-11-15T01:48:36;99688.17;;;-0.49;100.0
64025;BME280;50266;57.446;26.936;2022-11-15T01:49:37;99680.69;;;-0.44;100.0
64025;BME280;50266;57.446;26.936;2022-11-15T01:50:36;99679.65;;;-0.44;100.0
64025;BME280;50266;57.446;26.936;2022-11-15T01:51:37;99684.0;;;-0.47;100.0
64025;BME280;50266;57.446;26.936;2022-11-15T01:52:37;99686.14;;;-0.45;100.0
64025;BME280;50266;57.446;26.936;2022-11-15T01:53:37;99686.61;;;-0.39;100.0
64025;BME280;50266;57.446;26.936;2022-11-15T01:54:37;99681.98;;;-0.43;100.0
64025;BME280;50266;57.446;26.936;2022-11-15T01:55:37;99683.75;;;-0.38;100.0
64025;BME280;50266;57.446;26.936;2022-11-15T01:56:38;99685.68;;;-0.36;100.0
64025;BME280;50266;57.446;26.936;2022-11-15T01:57:39;99688.55;;;-0.38;100.0
64025;BME280;50266;57.446;26.936;2022-11-15T01:58:39;99683.88;;;-0.43;100.0
64025;BME280;50266;57.446;26.936;2022-11-15T01:59:40;99681.01;;;-0.49;100.0
64025;BME280;50266;57.446;26.936;2022-11-15T02:00:39;99683.53;;;-0.35;100.0
64025;BME280;50266;57.446;26.936;2022-11-15T02:01:39;99671.41;;;-0.32;100.0
64025;BME280;50266;57.446;26.936;2022-11-15T02:02:39;99672.2;;;-0.28;100.0
64025;BME280;50266;57.446;26.936;2022-11-15T02:03:42;99664.61;;;-0.35;100.0
64025;BME280;50266;57.446;26.936;2022-11-15T02:04:42;99661.42;;;-0.36;100.0
64025;BME280;50266;57.446;26.936;2022-11-15T02:05:40;99658.81;;;-0.33;100.0
64025;BME280;50266;57.446;26.936;2022-11-15T02:06:41;99651.14;;;-0.36;100.0
64025;BME280;50266;57.446;26.936;2022-11-15T02:07:41;99652.22;;;-0.48;100.0
64025;BME280;50266;57.446;26.936;2022-11-15T02:08:41;99648.5;;;-0.44;100.0
64025;BME280;50266;57.446;26.936;2022-11-15T02:09:41;99650.05;;;-0.36;100.0
64025;BME280;50266;57.446;26.936;2022-11-15T02:10:41;99650.94;;;-0.26;100.0
64025;BME280;50266;57.446;26.936;2022-11-15T02:11:41;99646.3;;;-0.41;100.0
64025;BME280;50266;57.446;26.936;2022-11-15T02:12:41;99648.93;;;-0.41;100.0
64025;BME280;50266;57.446;26.936;2022-11-15T02:13:41;99641.42;;;-0.35;100.0
64025;BME280;50266;57.446;26.936;2022-11-15T02:14:42;99643.16;;;-0.37;100.0
64025;BME280;50266;57.446;26.936;2022-11-15T02:15:49;99640.73;;;-0.43;100.0
64025;BME280;50266;57.446;26.936;2022-11-15T02:16:46;99631.23;;;-0.43;100.0
64025;BME280;50266;57.446;26.936;2022-11-15T02:18:04;99637.0;;;-0.41;100.0
64025;BME280;50266;57.446;26.936;2022-11-15T02:18:50;99627.83;;;-0.42;100.0
64025;BME280;50266;57.446;26.936;2022-11-15T02:22:00;99616.19;;;-0.38;100.0
64025;BME280;50266;57.446;26.936;2022-11-15T02:26:12;99594.52;;;-0.23;100.0
64025;BME280;50266;57.446;26.936;2022-11-15T02:29:10;99592.34;;;-0.28;100.0
64025;BME280;50266;57.446;26.936;2022-11-15T02:30:21;99589.69;;;-0.26;100.0
64025;BME280;50266;57.446;26.936;2022-11-15T02:33:23;99583.67;;;-0.3;100.0
64025;BME280;50266;57.446;26.936;2022-11-15T02:35:26;99571.72;;;-0.21;100.0
64025;BME280;50266;57.446;26.936;2022-11-15T02:38:35;99559.64;;;-0.28;100.0
64025;BME280;50266;57.446;26.936;2022-11-15T02:39:40;99555.05;;;-0.32;100.0
64025;BME280;50266;57.446;26.936;2022-11-15T02:40:38;99556.39;;;-0.32;100.0
64025;BME280;50266;57.446;26.936;2022-11-15T02:42:49;99554.96;;;-0.36;100.0
64025;BME280;50266;57.446;26.936;2022-11-15T02:44:06;99553.32;;;-0.3;100.0
64025;BME280;50266;57.446;26.936;2022-11-15T02:44:44;99554.05;;;-0.24;100.0
64025;BME280;50266;57.446;26.936;2022-11-15T02:45:46;99548.36;;;-0.27;100.0
64025;BME280;50266;57.446;26.936;2022-11-15T02:46:51;99551.16;;;-0.34;100.0
64025;BME280;50266;57.446;26.936;2022-11-15T02:47:45;99548.66;;;-0.29;100.0
64025;BME280;50266;57.446;26.936;2022-11-15T02:48:45;99550.14;;;-0.29;100.0
64025;BME280;50266;57.446;26.936;2022-11-15T02:49:46;99549.79;;;-0.31;100.0
64025;BME280;50266;57.446;26.936;2022-11-15T02:50:45;99549.33;;;-0.29;100.0
64025;BME280;50266;57.446;26.936;2022-11-15T02:51:46;99547.8;;;-0.26;100.0
64025;BME280;50266;57.446;26.936;2022-11-15T02:52:45;99543.58;;;-0.25;100.0
64025;BME280;50266;57.446;26.936;2022-11-15T02:53:45;99541.03;;;-0.25;100.0
64025;BME280;50266;57.446;26.936;2022-11-15T02:54:55;99542.64;;;-0.25;100.0
64025;BME280;50266;57.446;26.936;2022-11-15T02:55:47;99539.93;;;-0.35;100.0
64025;BME280;50266;57.446;26.936;2022-11-15T02:56:47;99541.64;;;-0.21;100.0
64025;BME280;50266;57.446;26.936;2022-11-15T02:58:51;99541.55;;;-0.32;100.0
64025;BME280;50266;57.446;26.936;2022-11-15T03:00:11;99548.36;;;-0.25;100.0
64025;BME280;50266;57.446;26.936;2022-11-15T03:02:07;99544.58;;;-0.17;100.0
64025;BME280;50266;57.446;26.936;2022-11-15T03:03:24;99543.64;;;-0.25;100.0
64025;BME280;50266;57.446;26.936;2022-11-15T03:04:25;99535.55;;;-0.21;100.0
64025;BME280;50266;57.446;26.936;2022-11-15T03:05:18;99533.84;;;-0.17;100.0
64025;BME280;50266;57.446;26.936;2022-11-15T03:06:22;99529.7;;;-0.17;100.0
64025;BME280;50266;57.446;26.936;2022-11-15T03:08:19;99518.55;;;-0.2;100.0
64025;BME280;50266;57.446;26.936;2022-11-15T03:10:27;99511.66;;;-0.21;100.0
64025;BME280;50266;57.446;26.936;2022-11-15T03:11:22;99506.5;;;-0.15;100.0
64025;BME280;50266;57.446;26.936;2022-11-15T03:12:36;99506.46;;;-0.16;100.0
64025;BME280;50266;57.446;26.936;2022-11-15T03:13:36;99504.31;;;-0.12;100.0
64025;BME280;50266;57.446;26.936;2022-11-15T03:14:34;99498.98;;;-0.13;100.0
64025;BME280;50266;57.446;26.936;2022-11-15T03:15:41;99503.56;;;-0.11;100.0
64025;BME280;50266;57.446;26.936;2022-11-15T03:17:01;99498.92;;;-0.14;100.0
64025;BME280;50266;57.446;26.936;2022-11-15T03:17:41;99503.35;;;-0.13;100.0
64025;BME280;50266;57.446;26.936;2022-11-15T03:18:41;99502.28;;;-0.05;100.0
64025;BME280;50266;57.446;26.936;2022-11-15T03:19:46;99506.62;;;-0.11;100.0
64025;BME280;50266;57.446;26.936;2022-11-15T03:20:43;99502.59;;;-0.13;100.0
64025;BME280;50266;57.446;26.936;2022-11-15T03:21:43;99504.24;;;-0.14;100.0
64025;BME280;50266;57.446;26.936;2022-11-15T03:22:44;99506.92;;;-0.08;100.0
64025;BME280;50266;57.446;26.936;2022-11-15T03:23:44;99502.67;;;-0.14;100.0
64025;BME280;50266;57.446;26.936;2022-11-15T03:24:45;99504.84;;;-0.09;100.0
64025;BME280;50266;57.446;26.936;2022-11-15T03:25:45;99501.83;;;-0.06;100.0
64025;BME280;50266;57.446;26.936;2022-11-15T03:26:44;99502.38;;;-0.11;100.0
64025;BME280;50266;57.446;26.936;2022-11-15T03:27:46;99496.33;;;-0.18;100.0
64025;BME280;50266;57.446;26.936;2022-11-15T03:28:53;99503.34;;;-0.21;100.0
64025;BME280;50266;57.446;26.936;2022-11-15T03:29:48;99502.73;;;-0.21;100.0
64025;BME280;50266;57.446;26.936;2022-11-15T03:30:46;99500.19;;;-0.21;100.0
64025;BME280;50266;57.446;26.936;2022-11-15T03:31:48;99497.16;;;-0.22;100.0
64025;BME280;50266;57.446;26.936;2022-11-15T03:32:49;99496.64;;;-0.12;100.0
64025;BME280;50266;57.446;26.936;2022-11-15T03:33:47;99491.42;;;-0.06;100.0
64025;BME280;50266;57.446;26.936;2022-11-15T03:34:52;99490.75;;;-0.02;100.0
64025;BME280;50266;57.446;26.936;2022-11-15T03:35:49;99483.74;;;-0.08;100.0
64025;BME280;50266;57.446;26.936;2022-11-15T03:36:49;99488.27;;;-0.03;100.0
64025;BME280;50266;57.446;26.936;2022-11-15T03:38:09;99488.23;;;-0.09;100.0
64025;BME280;50266;57.446;26.936;2022-11-15T03:38:56;99481.34;;;-0.07;100.0
64025;BME280;50266;57.446;26.936;2022-11-15T03:39:54;99486.59;;;-0.06;100.0
64025;BME280;50266;57.446;26.936;2022-11-15T03:42:12;99481.2;;;-0.06;100.0
64025;BME280;50266;57.446;26.936;2022-11-15T03:43:03;99485.41;;;-0.02;100.0
64025;BME280;50266;57.446;26.936;2022-11-15T03:45:13;99483.45;;;-0.09;100.0
64025;BME280;50266;57.446;26.936;2022-11-15T03:46:34;99481.77;;;-0.12;100.0
64025;BME280;50266;57.446;26.936;2022-11-15T03:47:15;99481.28;;;-0.07;100.0
64025;BME280;50266;57.446;26.936;2022-11-15T03:48:14;99479.47;;;-0.11;100.0
64025;BME280;50266;57.446;26.936;2022-11-15T03:49:15;99473.29;;;-0.1;100.0
64025;BME280;50266;57.446;26.936;2022-11-15T03:50:15;99472.83;;;-0.08;100.0
64025;BME280;50266;57.446;26.936;2022-11-15T03:51:14;99470.89;;;-0.07;100.0
64025;BME280;50266;57.446;26.936;2022-11-15T03:52:14;99464.28;;;-0.06;100.0
64025;BME280;50266;57.446;26.936;2022-11-15T03:53:14;99468.89;;;-0.03;100.0
64025;BME280;50266;57.446;26.936;2022-11-15T03:54:14;99461.41;;;-0.06;100.0
64025;BME280;50266;57.446;26.936;2022-11-15T03:55:18;99461.5;;;-0.01;100.0
64025;BME280;50266;57.446;26.936;2022-11-15T03:56:15;99455.88;;;-0.1;100.0
64025;BME280;50266;57.446;26.936;2022-11-15T03:57:15;99457.67;;;-0.05;100.0
64025;BME280;50266;57.446;26.936;2022-11-15T03:58:15;99456.48;;;-0.03;100.0
64025;BME280;50266;57.446;26.936;2022-11-15T03:59:15;99452.8;;;-0.04;100.0
64025;BME280;50266;57.446;26.936;2022-11-15T04:00:15;99451.73;;;-0.05;100.0
64025;BME280;50266;57.446;26.936;2022-11-15T04:01:15;99444.08;;;-0.06;100.0
64025;BME280;50266;57.446;26.936;2022-11-15T04:02:15;99443.56;;;0.0;100.0
64025;BME280;50266;57.446;26.936;2022-11-15T04:03:15;99445.4;;;-0.02;100.0
64025;BME280;50266;57.446;26.936;2022-11-15T04:04:16;99443.54;;;-0.01;100.0
64025;BME280;50266;57.446;26.936;2022-11-15T04:05:16;99445.5;;;-0.01;100.0
64025;BME280;50266;57.446;26.936;2022-11-15T04:06:16;99443.94;;;-0.04;100.0
64025;BME280;50266;57.446;26.936;2022-11-15T04:07:16;99448.16;;;-0.01;100.0
64025;BME280;50266;57.446;26.936;2022-11-15T04:08:16;99442.69;;;0.01;100.0
64025;BME280;50266;57.446;26.936;2022-11-15T04:09:16;99436.55;;;0.08;100.0
64025;BME280;50266;57.446;26.936;2022-11-15T04:10:17;99433.5;;;0.14;100.0
64025;BME280;50266;57.446;26.936;2022-11-15T04:11:16;99430.56;;;0.14;100.0
64025;BME280;50266;57.446;26.936;2022-11-15T04:12:16;99419.03;;;0.07;100.0
64025;BME280;50266;57.446;26.936;2022-11-15T04:13:16;99415.91;;;0.06;100.0
64025;BME280;50266;57.446;26.936;2022-11-15T04:14:16;99403.39;;;0.08;100.0
64025;BME280;50266;57.446;26.936;2022-11-15T04:15:17;99404.97;;;0.12;100.0
64025;BME280;50266;57.446;26.936;2022-11-15T04:16:16;99404.02;;;0.06;100.0
64025;BME280;50266;57.446;26.936;2022-11-15T04:17:16;99404.64;;;0.08;100.0
64025;BME280;50266;57.446;26.936;2022-11-15T04:18:16;99404.37;;;0.06;100.0
64025;BME280;50266;57.446;26.936;2022-11-15T04:19:16;99406.09;;;0.07;100.0
64025;BME280;50266;57.446;26.936;2022-11-15T04:20:18;99408.78;;;0.06;100.0
64025;BME280;50266;57.446;26.936;2022-11-15T04:21:16;99406.16;;;0.06;100.0
64025;BME280;50266;57.446;26.936;2022-11-15T04:22:16;99407.39;;;0.05;100.0
64025;BME280;50266;57.446;26.936;2022-11-15T04:23:18;99404.46;;;0.02;100.0
64025;BME280;50266;57.446;26.936;2022-11-15T04:24:16;99406.39;;;-0.02;100.0
64025;BME280;50266;57.446;26.936;2022-11-15T04:25:17;99403.66;;;0.01;100.0
64025;BME280;50266;57.446;26.936;2022-11-15T04:26:19;99398.03;;;0.04;100.0
64025;BME280;50266;57.446;26.936;2022-11-15T04:27:18;99399.23;;;0.09;100.0
64025;BME280;50266;57.446;26.936;2022-11-15T04:28:18;99396.69;;;0.0;100.0
64025;BME280;50266;57.446;26.936;2022-11-15T04:29:18;99395.9;;;0.07;100.0
64025;BME280;50266;57.446;26.936;2022-11-15T04:30:18;99394.8;;;0.07;100.0
64025;BME280;50266;57.446;26.936;2022-11-15T04:31:18;99395.06;;;0.1;100.0
64025;BME280;50266;57.446;26.936;2022-11-15T04:32:18;99387.73;;;0.09;100.0
64025;BME280;50266;57.446;26.936;2022-11-15T04:33:19;99388.08;;;0.13;100.0
64025;BME280;50266;57.446;26.936;2022-11-15T04:34:19;99380.8;;;0.08;100.0
64025;BME280;50266;57.446;26.936;2022-11-15T04:35:19;99385.05;;;0.01;100.0
64025;BME280;50266;57.446;26.936;2022-11-15T04:36:19;99387.24;;;-0.05;100.0
64025;BME280;50266;57.446;26.936;2022-11-15T04:37:19;99389.41;;;0.0;100.0
64025;BME280;50266;57.446;26.936;2022-11-15T04:38:19;99385.98;;;0.0;100.0
64025;BME280;50266;57.446;26.936;2022-11-15T04:39:19;99378.46;;;0.03;100.0
64025;BME280;50266;57.446;26.936;2022-11-15T04:40:19;99376.58;;;0.04;100.0
64025;BME280;50266;57.446;26.936;2022-11-15T04:41:19;99374.93;;;0.05;100.0
64025;BME280;50266;57.446;26.936;2022-11-15T04:42:19;99370.72;;;0.04;100.0
64025;BME280;50266;57.446;26.936;2022-11-15T04:43:19;99367.42;;;0.07;100.0
64025;BME280;50266;57.446;26.936;2022-11-15T04:44:19;99365.99;;;0.06;100.0
64025;BME280;50266;57.446;26.936;2022-11-15T04:45:19;99365.49;;;-0.01;100.0
64025;BME280;50266;57.446;26.936;2022-11-15T04:46:19;99363.31;;;0.04;100.0
64025;BME280;50266;57.446;26.936;2022-11-15T04:47:19;99358.84;;;0.06;100.0
64025;BME280;50266;57.446;26.936;2022-11-15T04:48:19;99361.47;;;0.08;100.0
64025;BME280;50266;57.446;26.936;2022-11-15T04:49:19;99356.55;;;0.11;100.0
64025;BME280;50266;57.446;26.936;2022-11-15T04:50:19;99358.27;;;0.05;100.0
64025;BME280;50266;57.446;26.936;2022-11-15T04:51:19;99356.52;;;0.06;100.0
64025;BME280;50266;57.446;26.936;2022-11-15T04:52:19;99358.52;;;0.04;100.0
64025;BME280;50266;57.446;26.936;2022-11-15T04:53:19;99354.07;;;0.06;100.0
64025;BME280;50266;57.446;26.936;2022-11-15T04:54:19;99348.03;;;0.06;100.0
64025;BME280;50266;57.446;26.936;2022-11-15T04:55:19;99347.11;;;0.03;100.0
64025;BME280;50266;57.446;26.936;2022-11-15T04:56:19;99341.59;;;0.13;100.0
64025;BME280;50266;57.446;26.936;2022-11-15T04:57:19;99338.77;;;0.1;100.0
64025;BME280;50266;57.446;26.936;2022-11-15T04:58:19;99337.92;;;0.07;100.0
64025;BME280;50266;57.446;26.936;2022-11-15T04:59:19;99338.68;;;0.07;100.0
64025;BME280;50266;57.446;26.936;2022-11-15T05:00:19;99339.28;;;0.11;100.0
64025;BME280;50266;57.446;26.936;2022-11-15T05:01:19;99333.5;;;0.08;100.0
64025;BME280;50266;57.446;26.936;2022-11-15T05:02:19;99330.31;;;0.09;100.0
64025;BME280;50266;57.446;26.936;2022-11-15T05:03:19;99330.56;;;0.1;100.0
64025;BME280;50266;57.446;26.936;2022-11-15T05:04:19;99334.19;;;0.08;100.0
64025;BME280;50266;57.446;26.936;2022-11-15T05:05:19;99335.74;;;0.09;100.0
64025;BME280;50266;57.446;26.936;2022-11-15T05:06:19;99332.88;;;0.06;100.0
64025;BME280;50266;57.446;26.936;2022-11-15T05:07:19;99330.8;;;0.09;100.0
64025;BME280;50266;57.446;26.936;2022-11-15T05:08:19;99333.07;;;0.09;100.0
64025;BME280;50266;57.446;26.936;2022-11-15T05:09:20;99335.23;;;0.12;100.0
64025;BME280;50266;57.446;26.936;2022-11-15T05:10:19;99333.22;;;0.1;100.0
64025;BME280;50266;57.446;26.936;2022-11-15T05:11:19;99324.31;;;0.11;100.0
64025;BME280;50266;57.446;26.936;2022-11-15T05:12:19;99321.99;;;0.15;100.0
64025;BME280;50266;57.446;26.936;2022-11-15T05:13:19;99316.87;;;0.15;100.0
64025;BME280;50266;57.446;26.936;2022-11-15T05:14:19;99317.87;;;0.18;100.0
64025;BME280;50266;57.446;26.936;2022-11-15T05:15:19;99314.52;;;0.19;100.0
64025;BME280;50266;57.446;26.936;2022-11-15T05:16:19;99312.52;;;0.19;100.0
64025;BME280;50266;57.446;26.936;2022-11-15T05:17:20;99310.54;;;0.2;100.0
64025;BME280;50266;57.446;26.936;2022-11-15T05:18:21;99309.19;;;0.15;100.0
64025;BME280;50266;57.446;26.936;2022-11-15T05:19:21;99310.42;;;0.16;100.0
64025;BME280;50266;57.446;26.936;2022-11-15T05:20:21;99313.6;;;0.19;100.0
64025;BME280;50266;57.446;26.936;2022-11-15T05:21:21;99309.59;;;0.16;100.0
64025;BME280;50266;57.446;26.936;2022-11-15T05:22:21;99314.62;;;0.15;100.0
64025;BME280;50266;57.446;26.936;2022-11-15T05:23:21;99313.67;;;0.08;100.0
64025;BME280;50266;57.446;26.936;2022-11-15T05:24:21;99314.54;;;0.16;100.0
64025;BME280;50266;57.446;26.936;2022-11-15T05:25:21;99315.38;;;0.16;100.0
64025;BME280;50266;57.446;26.936;2022-11-15T05:26:21;99315.39;;;0.15;100.0
64025;BME280;50266;57.446;26.936;2022-11-15T05:27:21;99314.52;;;0.19;100.0
64025;BME280;50266;57.446;26.936;2022-11-15T05:28:21;99313.95;;;0.21;100.0
64025;BME280;50266;57.446;26.936;2022-11-15T05:29:21;99313.88;;;0.12;100.0
64025;BME280;50266;57.446;26.936;2022-11-15T05:30:21;99312.05;;;0.18;100.0
64025;BME280;50266;57.446;26.936;2022-11-15T05:31:21;99305.32;;;0.24;100.0
64025;BME280;50266;57.446;26.936;2022-11-15T05:32:21;99303.09;;;0.22;100.0
64025;BME280;50266;57.446;26.936;2022-11-15T05:33:21;99299.6;;;0.24;100.0
64025;BME280;50266;57.446;26.936;2022-11-15T05:34:21;99296.96;;;0.2;100.0
64025;BME280;50266;57.446;26.936;2022-11-15T05:35:27;99298.47;;;0.19;100.0
64025;BME280;50266;57.446;26.936;2022-11-15T05:36:36;99297.12;;;0.2;100.0
64025;BME280;50266;57.446;26.936;2022-11-15T05:37:28;99294.81;;;0.19;100.0
64025;BME280;50266;57.446;26.936;2022-11-15T05:38:27;99294.53;;;0.18;100.0